Ashby, MN

8:06 PM CDT on July 25, 2014 (GMT -0500)
Elbow Lake (KY63) Elev 1204 ft | 45.99 °N, 95.99 °W | Change Station

Current weather conditions updated 8 minutes ago

Overcast
Overcast
73 °F
Feels Like 73 °F
N
5
Wind Variable Wind from West

Tomorrow is forecast to be Much Warmer than today.

Today
High -- | Low -- °F
--% Chance of Precip.
Yesterday
High -- | Low -- °F
Precip. -- in
5:57 AM 9:01 PM
Waning Crescent, 1% visible
Pressure 29.78 in
Visibility 10.0 miles
Clouds Scattered Clouds 2400 ft
Mostly Cloudy 3000 ft
Overcast 3800 ft
Dew Point 69 °F
Humidity 86%
Rainfall 0.27 in
Snow Depth Not available.
UV 0 out of 12
Pollen 6.70 out of 12
Air Quality Not available.
Flu Activity Not available.
METAR KY63 260058Z AUTO 28004KT 10SM SCT024 BKN030 OVC038 23/21 A2978 RMK AO2 T02300206

More Conditions Fewer Conditions

Pressure 29.78 in
Visibility 10.0 miles
Clouds Scattered Clouds 2400 ft
Mostly Cloudy 3000 ft
Overcast 3800 ft
Dew Point 69 °F
Humidity 86%
Rainfall 0.27 in
Snow Depth Not available.
UV 0 out of 12
Pollen 6.70 out of 12
Air Quality Not available.
Flu Activity Not available.
METAR KY63 260058Z AUTO 28004KT 10SM SCT024 BKN030 OVC038 23/21 A2978 RMK AO2 T02300206

More Conditions Fewer Conditions

10-Day Weather Forecast

Almanac

Astronomy

Jul. 25, 2014 Rise Set
Actual Time 5:57 AM CDT 9:01 PM CDT
Civil Twilight 5:21 AM CDT 9:37 PM CDT
Nautical Twilight 4:35 AM CDT 10:22 PM CDT
Astronomical Twilight 3:39 AM CDT 11:18 PM CDT
Moon 4:59 AM CDT (7/25) 7:55 PM CDT (7/25)
Length of Visible Light 16h 15m
Length of Day
15h 04m
Tomorrow will be 2m 16s shorter.
Waning Crescent, 1% of the Moon is Illuminated
Today
Waning Crescent
Jul 26
New
Aug 3
First Quarter
Aug 10
Full
Aug 17
Last Quarter

Today's Extremes

State Highs State Lows

Community

WunderPhotos

Upload Photos

1,737,455 photos uploaded!

Nearby

Snow Depth

Station Depth Elevation
No new snow has been reported.

Earthquake Activity

City Distance Mag. Time & Date
No recent earthquake activity has been reported nearby.
Minimum magnitude displayed is 2.5.

Coastal Water Temperatures

Place Temperature
No Stations Reporting

Nearby Weather Stations

Station Location Temp. Heat Index Dew Point Humidity Wind Precip. Elev Updated Type
Gardonville, Brandon, MN 73.9 °F 73 °F 69 °F 84% WNW  at  1.0 mph 0.00 in / hr 1411 ft 8:06 PM CDT Rapid Fire
Hoffman MN, Hoffman, MN 75.9 °F 77 °F 70 °F 81% WNW  at  2.2 mph 0.00 in / hr 1240 ft 8:05 PM CDT Normal

Show More Stations Show Fewer Stations